createdAt,value
2022-08-07T00:13:02.119Z,23.80
2022-08-07T00:28:07.628Z,23.80
2022-08-07T00:44:00.888Z,23.60
2022-08-07T00:58:39.176Z,23.40
2022-08-07T01:13:55.937Z,22.90
2022-08-07T01:29:02.298Z,23.10
2022-08-07T01:44:11.365Z,23.10
2022-08-07T01:59:30.977Z,23.00
2022-08-07T02:14:41.126Z,22.90
2022-08-07T02:29:55.023Z,22.70
2022-08-07T02:45:59.445Z,22.80
2022-08-07T03:00:35.514Z,22.60
2022-08-07T03:15:55.512Z,22.50
2022-08-07T03:31:24.737Z,22.00
2022-08-07T03:47:13.187Z,22.20
2022-08-07T04:02:12.361Z,22.00
2022-08-07T04:17:20.874Z,22.00
2022-08-07T04:32:34.407Z,21.90
2022-08-07T04:47:57.095Z,21.80
2022-08-07T05:03:31.081Z,21.70
2022-08-07T05:18:48.257Z,21.70
2022-08-07T05:34:04.549Z,21.80
2022-08-07T05:49:13.130Z,21.80
2022-08-07T06:04:29.925Z,21.80
2022-08-07T06:19:57.709Z,21.80
2022-08-07T06:35:02.300Z,21.80
2022-08-07T06:50:15.504Z,22.00
2022-08-07T07:06:03.042Z,21.60
2022-08-07T07:20:52.754Z,22.20
2022-08-07T07:36:04.808Z,21.80
2022-08-07T07:51:11.612Z,22.00
2022-08-07T08:06:20.823Z,22.60
2022-08-07T08:21:55.535Z,22.70
2022-08-07T08:38:01.072Z,22.80
2022-08-07T08:52:40.623Z,22.90
2022-08-07T09:08:03.729Z,22.90
2022-08-07T09:24:31.268Z,23.10
2022-08-07T09:38:55.001Z,23.20
2022-08-07T09:54:02.897Z,23.40
2022-08-07T10:09:42.585Z,23.50
2022-08-07T10:25:20.909Z,23.70
2022-08-07T10:40:35.726Z,23.80
2022-08-07T10:55:46.268Z,24.10
2022-08-07T11:10:59.872Z,24.30
2022-08-07T11:26:13.170Z,24.50
2022-08-07T11:42:00.362Z,24.60
2022-08-07T11:57:02.263Z,24.80
2022-08-07T12:12:12.039Z,25.00
2022-08-07T12:27:27.630Z,25.50
2022-08-07T12:42:35.216Z,25.60
2022-08-07T12:58:01.163Z,25.80
2022-08-07T13:13:48.658Z,26.00
2022-08-07T13:29:02.012Z,26.40
2022-08-07T13:44:10.583Z,26.90
2022-08-07T13:59:22.381Z,28.00
2022-08-07T14:14:31.203Z,32.50
2022-08-07T14:30:09.345Z,35.00
2022-08-07T15:00:38.511Z,38.40
2022-08-07T15:15:52.705Z,39.30
2022-08-07T15:46:37.691Z,39.90
2022-08-07T16:02:02.215Z,39.60
2022-08-07T16:18:02.159Z,38.00
2022-08-07T16:32:55.106Z,35.20
2022-08-07T16:48:28.420Z,33.30
2022-08-07T17:03:59.656Z,32.10
2022-08-07T17:19:16.241Z,31.20
2022-08-07T17:34:34.017Z,30.60
2022-08-07T17:49:54.235Z,30.00
2022-08-07T18:05:20.605Z,29.70
2022-08-07T18:21:02.780Z,29.30
2022-08-07T18:36:06.003Z,29.20
2022-08-07T18:52:35.401Z,28.80
2022-08-07T19:06:51.427Z,28.60
2022-08-07T19:22:04.761Z,28.20
2022-08-07T19:37:17.507Z,28.00
2022-08-07T19:52:27.683Z,27.80
2022-08-07T20:07:45.880Z,27.60
2022-08-07T20:22:55.347Z,27.20
2022-08-07T20:38:01.806Z,26.90
2022-08-07T20:53:11.403Z,26.80
2022-08-07T21:08:29.304Z,26.60
2022-08-07T21:23:51.920Z,26.40
2022-08-07T21:39:48.099Z,26.30
2022-08-07T21:54:50.974Z,26.10
2022-08-07T22:10:02.080Z,25.90
2022-08-07T22:25:12.967Z,25.70
2022-08-07T22:40:25.809Z,25.60
2022-08-07T22:55:47.409Z,25.30
2022-08-07T23:11:10.327Z,25.10
2022-08-07T23:26:25.200Z,25.00
2022-08-07T23:42:05.009Z,24.80
2022-08-07T23:57:18.489Z,24.70
